Time;durP1;ratioP1;P1;durP2;ratioP2;P2;SDS_P1;SDS_P2;PMS_P1;PMS_P2;Temp;Humidity;BMP_temperature;BMP_pressure;BME280_temperature;BME280_humidity;BME280_pressure;Samples;Min_cycle;Max_cycle;Signal;HPM_P1;HPM_P2
2022/07/06 00:01:25;;;;;;;4.00;2.03;;;;;;;;;;5062625;28;20052;-76
2022/07/06 00:03:51;;;;;;;5.53;2.10;;;;;;;;;;5079537;28;20032;-75
2022/07/06 00:06:17;;;;;;;4.55;1.90;;;;;;;;;;5061536;28;20037;-76
2022/07/06 00:08:44;;;;;;;7.85;2.30;;;;;;;;;;5078842;28;20092;-76
2022/07/06 00:11:10;;;;;;;6.93;2.58;;;;;;;;;;5045435;28;20033;-76
2022/07/06 00:13:37;;;;;;;6.30;2.38;;;;;;;;;;5062226;28;20047;-76
2022/07/06 00:16:04;;;;;;;6.38;2.40;;;;;;;;;;5062252;28;20057;-75
2022/07/06 00:18:30;;;;;;;3.95;2.10;;;;;;;;;;5062299;28;20037;-75
2022/07/06 00:20:56;;;;;;;6.82;2.08;;;;;;;;;;5078543;28;20070;-75
2022/07/06 00:23:22;;;;;;;7.00;2.42;;;;;;;;;;5078479;28;20085;-75
2022/07/06 00:25:48;;;;;;;5.45;2.15;;;;;;;;;;5079156;28;20025;-75
2022/07/06 00:28:15;;;;;;;5.32;2.33;;;;;;;;;;5079022;28;20343;-75
2022/07/06 00:30:41;;;;;;;4.93;2.15;;;;;;;;;;5079343;28;20032;-75
2022/07/06 00:33:07;;;;;;;6.68;2.50;;;;;;;;;;5062074;28;20097;-76
2022/07/06 00:35:33;;;;;;;7.47;2.40;;;;;;;;;;5061124;28;20033;-75
2022/07/06 00:37:59;;;;;;;5.90;2.05;;;;;;;;;;5078184;28;20032;-76
2022/07/06 00:40:25;;;;;;;6.93;2.13;;;;;;;;;;5078901;28;20029;-76
2022/07/06 00:42:51;;;;;;;7.63;1.75;;;;;;;;;;5078891;28;20043;-76
2022/07/06 00:45:18;;;;;;;4.65;1.80;;;;;;;;;;5061356;28;20056;-75
2022/07/06 00:47:45;;;;;;;4.45;1.58;;;;;;;;;;5061347;28;20080;-75
2022/07/06 00:50:15;;;;;;;4.75;1.85;;;;;;;;;;5078090;28;20050;-75
2022/07/06 00:53:01;;;;;;;5.40;2.08;;;;;;;;;;5078032;28;20047;-75
2022/07/06 00:55:28;;;;;;;4.65;2.17;;;;;;;;;;5078656;28;20021;-75
2022/07/06 00:57:55;;;;;;;5.03;2.22;;;;;;;;;;5078550;28;20085;-75
2022/07/06 01:00:22;;;;;;;11.77;2.42;;;;;;;;;;5061503;28;20050;-76
2022/07/06 01:02:49;;;;;;;5.60;1.80;;;;;;;;;;5078522;28;20025;-75
2022/07/06 01:05:16;;;;;;;5.28;1.85;;;;;;;;;;5077490;28;20025;-75
2022/07/06 01:07:43;;;;;;;7.07;2.00;;;;;;;;;;5056301;28;20029;-76
2022/07/06 01:10:09;;;;;;;4.80;1.55;;;;;;;;;;5061219;28;20041;-76
2022/07/06 01:12:36;;;;;;;4.38;1.85;;;;;;;;;;5078434;28;20037;-76
2022/07/06 01:15:06;;;;;;;5.65;1.77;;;;;;;;;;5078404;28;20037;-76
2022/07/06 01:17:33;;;;;;;4.25;1.60;;;;;;;;;;5078298;28;20025;-75
2022/07/06 01:20:04;;;;;;;3.17;1.67;;;;;;;;;;5077581;28;20081;-76
2022/07/06 01:22:30;;;;;;;4.45;1.60;;;;;;;;;;5076903;28;20096;-76
2022/07/06 01:24:56;;;;;;;5.63;1.70;;;;;;;;;;5078317;28;20036;-75
2022/07/06 01:27:22;;;;;;;6.63;1.92;;;;;;;;;;5061112;28;20033;-76
2022/07/06 01:29:48;;;;;;;5.30;1.52;;;;;;;;;;5061117;28;20033;-75
2022/07/06 01:32:15;;;;;;;4.88;1.95;;;;;;;;;;5077957;28;20139;-76
2022/07/06 01:34:41;;;;;;;3.78;1.67;;;;;;;;;;5078082;28;20031;-76
2022/07/06 01:37:07;;;;;;;6.13;1.90;;;;;;;;;;5059021;28;20089;-75
2022/07/06 01:39:33;;;;;;;6.35;1.70;;;;;;;;;;5060629;28;20032;-76
2022/07/06 01:41:59;;;;;;;4.13;1.73;;;;;;;;;;5061041;28;20144;-76
2022/07/06 01:44:25;;;;;;;4.88;1.80;;;;;;;;;;5077725;28;20041;-76
2022/07/06 01:46:51;;;;;;;5.05;1.52;;;;;;;;;;5077776;28;20045;-75
2022/07/06 01:49:17;;;;;;;5.75;1.77;;;;;;;;;;5078002;28;20033;-76
2022/07/06 01:51:43;;;;;;;8.05;2.15;;;;;;;;;;5076302;28;20060;-76
2022/07/06 01:54:09;;;;;;;4.40;1.80;;;;;;;;;;5060892;28;20037;-76
2022/07/06 01:56:35;;;;;;;4.53;1.75;;;;;;;;;;5077834;28;20029;-76
2022/07/06 01:59:01;;;;;;;6.72;2.10;;;;;;;;;;5077825;28;20037;-75
2022/07/06 02:01:27;;;;;;;5.18;1.77;;;;;;;;;;5077731;28;20052;-76
2022/07/06 02:03:53;;;;;;;4.40;1.88;;;;;;;;;;5060555;28;20036;-76
2022/07/06 02:06:19;;;;;;;4.65;1.60;;;;;;;;;;5075563;28;20032;-76
2022/07/06 02:08:45;;;;;;;3.60;1.88;;;;;;;;;;5060555;28;20033;-76
2022/07/06 02:11:11;;;;;;;5.20;1.90;;;;;;;;;;5060493;28;20041;-76
2022/07/06 02:13:37;;;;;;;3.45;1.60;;;;;;;;;;5077683;28;20064;-75
2022/07/06 02:16:04;;;;;;;3.83;1.70;;;;;;;;;;5077861;28;20080;-75
2022/07/06 02:18:30;;;;;;;6.40;1.70;;;;;;;;;;5080450;28;20087;-75
2022/07/06 02:20:56;;;;;;;5.20;1.63;;;;;;;;;;5080228;28;20041;-75
2022/07/06 02:23:22;;;;;;;5.85;1.83;;;;;;;;;;5081476;28;20058;-75
2022/07/06 02:25:48;;;;;;;5.13;1.90;;;;;;;;;;5064396;28;20105;-76
2022/07/06 02:28:14;;;;;;;3.83;1.60;;;;;;;;;;5064151;28;20055;-75
2022/07/06 02:30:40;;;;;;;4.75;1.80;;;;;;;;;;5064071;28;20037;-75
2022/07/06 02:33:06;;;;;;;6.28;1.95;;;;;;;;;;5047710;28;20041;-75
2022/07/06 02:35:32;;;;;;;2.38;1.52;;;;;;;;;;5079813;28;20047;-75
2022/07/06 02:37:58;;;;;;;4.82;1.77;;;;;;;;;;5081122;28;20029;-76
2022/07/06 02:40:24;;;;;;;6.30;2.08;;;;;;;;;;5063980;28;20040;-75
2022/07/06 02:42:50;;;;;;;5.43;1.85;;;;;;;;;;5063849;28;20049;-75
2022/07/06 02:45:16;;;;;;;3.42;1.80;;;;;;;;;;5064006;28;20049;-75
2022/07/06 02:47:42;;;;;;;5.38;1.80;;;;;;;;;;5080816;28;20044;-75
2022/07/06 02:50:11;;;;;;;3.28;1.58;;;;;;;;;;5046873;28;20033;-76
2022/07/06 02:52:37;;;;;;;4.20;1.80;;;;;;;;;;5081119;28;20067;-75
2022/07/06 02:55:03;;;;;;;4.93;1.80;;;;;;;;;;5047246;28;20055;-75
2022/07/06 02:57:29;;;;;;;6.72;1.67;;;;;;;;;;5080827;28;20021;-76
2022/07/06 02:59:55;;;;;;;5.03;1.60;;;;;;;;;;5080895;28;20051;-76
2022/07/06 03:02:21;;;;;;;6.70;1.83;;;;;;;;;;5080766;28;20048;-76
2022/07/06 03:04:47;;;;;;;5.93;1.88;;;;;;;;;;5079454;28;20060;-75
2022/07/06 03:07:13;;;;;;;3.95;1.70;;;;;;;;;;5063607;28;20053;-75
2022/07/06 03:09:39;;;;;;;3.83;1.58;;;;;;;;;;5063383;28;20028;-75
2022/07/06 03:12:06;;;;;;;4.00;1.60;;;;;;;;;;5063583;28;20037;-74
2022/07/06 03:14:32;;;;;;;2.30;1.33;;;;;;;;;;5080608;28;20028;-75
2022/07/06 03:16:58;;;;;;;2.75;1.50;;;;;;;;;;5063484;28;20058;-76
2022/07/06 03:19:24;;;;;;;5.15;1.52;;;;;;;;;;5079188;28;20051;-75
2022/07/06 03:21:50;;;;;;;6.18;1.67;;;;;;;;;;5063404;28;20047;-75
2022/07/06 03:24:16;;;;;;;4.47;1.60;;;;;;;;;;5079925;28;20064;-75
2022/07/06 03:26:42;;;;;;;4.00;1.48;;;;;;;;;;5063248;28;20045;-76
2022/07/06 03:29:08;;;;;;;3.90;1.48;;;;;;;;;;5063026;28;20044;-75
2022/07/06 03:31:35;;;;;;;3.45;1.60;;;;;;;;;;5062972;28;20036;-75
2022/07/06 03:34:01;;;;;;;4.47;1.60;;;;;;;;;;5079076;28;20075;-76
2022/07/06 03:36:27;;;;;;;5.30;1.83;;;;;;;;;;5080054;28;20031;-76
2022/07/06 03:38:53;;;;;;;4.60;1.70;;;;;;;;;;5063052;28;20037;-75
2022/07/06 03:41:19;;;;;;;4.63;1.60;;;;;;;;;;5062822;28;20037;-75
2022/07/06 03:43:45;;;;;;;4.15;1.35;;;;;;;;;;5062881;28;20088;-75
2022/07/06 03:46:11;;;;;;;3.08;1.65;;;;;;;;;;5062345;28;20029;-77
2022/07/06 03:48:37;;;;;;;5.55;1.80;;;;;;;;;;5061716;28;20047;-76
2022/07/06 03:51:03;;;;;;;4.63;1.83;;;;;;;;;;5062859;28;20053;-75
2022/07/06 03:53:29;;;;;;;5.43;1.70;;;;;;;;;;5062681;28;20036;-75
2022/07/06 03:58:40;;;;;;;5.28;2.10;;;;;;;;;;5062688;28;20056;-75
2022/07/06 04:01:06;;;;;;;5.88;2.10;;;;;;;;;;5079676;28;20032;-76
2022/07/06 04:03:32;;;;;;;4.03;1.90;;;;;;;;;;5061348;28;20037;-76
2022/07/06 04:05:58;;;;;;;7.50;2.20;;;;;;;;;;5062501;28;20045;-76
2022/07/06 04:08:24;;;;;;;5.45;1.73;;;;;;;;;;5062148;28;20109;-76
2022/07/06 04:10:50;;;;;;;4.40;1.90;;;;;;;;;;5079541;28;20104;-75
2022/07/06 04:13:16;;;;;;;5.85;1.90;;;;;;;;;;5062398;28;20044;-75
2022/07/06 04:15:42;;;;;;;5.13;1.90;;;;;;;;;;5079456;28;20085;-76
2022/07/06 04:18:08;;;;;;;5.95;2.10;;;;;;;;;;5060930;28;20033;-76
2022/07/06 04:20:34;;;;;;;4.78;1.98;;;;;;;;;;5062204;28;20035;-76
2022/07/06 04:23:01;;;;;;;6.88;2.13;;;;;;;;;;5079247;28;20029;-75
2022/07/06 04:25:27;;;;;;;4.97;2.10;;;;;;;;;;5061831;28;20039;-76
2022/07/06 04:27:53;;;;;;;5.22;2.25;;;;;;;;;;5062131;28;20053;-76
2022/07/06 04:30:19;;;;;;;7.80;2.40;;;;;;;;;;5079232;28;20025;-76
2022/07/06 04:32:45;;;;;;;4.47;1.95;;;;;;;;;;5060307;28;20036;-76
2022/07/06 04:35:11;;;;;;;5.30;1.92;;;;;;;;;;5078502;28;20029;-76
2022/07/06 04:37:37;;;;;;;3.95;1.80;;;;;;;;;;5061550;28;20039;-76
2022/07/06 04:40:03;;;;;;;4.43;1.80;;;;;;;;;;5061050;28;20093;-77
2022/07/06 04:42:30;;;;;;;4.22;2.05;;;;;;;;;;5079005;28;20025;-76
2022/07/06 04:44:56;;;;;;;5.93;1.90;;;;;;;;;;5078866;28;20025;-76
2022/07/06 04:47:22;;;;;;;3.28;1.60;;;;;;;;;;5077175;28;20037;-76
2022/07/06 04:49:48;;;;;;;1.92;1.48;;;;;;;;;;5060950;28;20044;-76
2022/07/06 04:52:14;;;;;;;3.38;1.50;;;;;;;;;;5061598;28;20037;-77
2022/07/06 04:54:40;;;;;;;4.68;1.80;;;;;;;;;;5061420;28;20093;-77
2022/07/06 04:57:06;;;;;;;5.28;1.75;;;;;;;;;;5061538;28;20053;-76
2022/07/06 04:59:32;;;;;;;5.72;1.83;;;;;;;;;;5045046;28;20055;-76
2022/07/06 05:01:58;;;;;;;3.58;1.70;;;;;;;;;;5059627;28;20292;-76
2022/07/06 05:04:24;;;;;;;4.72;1.73;;;;;;;;;;5059927;28;20037;-76
2022/07/06 05:06:50;;;;;;;5.05;1.90;;;;;;;;;;5061239;28;20029;-76
2022/07/06 05:09:16;;;;;;;4.68;1.88;;;;;;;;;;5077982;28;20033;-76
2022/07/06 05:11:43;;;;;;;5.82;2.20;;;;;;;;;;5078441;28;20088;-76
2022/07/06 05:14:10;;;;;;;4.28;1.73;;;;;;;;;;5078518;28;20035;-76
2022/07/06 05:16:36;;;;;;;5.13;2.10;;;;;;;;;;5061332;28;20045;-77
2022/07/06 05:19:03;;;;;;;5.57;1.85;;;;;;;;;;5077557;28;20115;-77
2022/07/06 05:21:29;;;;;;;3.97;1.70;;;;;;;;;;5078436;28;20025;-76
2022/07/06 05:23:55;;;;;;;6.10;1.80;;;;;;;;;;5077405;28;20053;-77
2022/07/06 05:26:21;;;;;;;7.35;2.10;;;;;;;;;;5078275;28;20029;-76
2022/07/06 05:28:47;;;;;;;4.63;1.58;;;;;;;;;;5078034;28;20037;-77
2022/07/06 05:31:13;;;;;;;5.75;1.85;;;;;;;;;;5078260;28;20024;-77
2022/07/06 05:33:39;;;;;;;5.95;1.85;;;;;;;;;;5044068;28;20029;-76
2022/07/06 05:36:05;;;;;;;5.30;2.00;;;;;;;;;;5078027;28;20133;-76
2022/07/06 05:38:31;;;;;;;4.60;1.80;;;;;;;;;;5077464;28;20047;-77
2022/07/06 05:40:57;;;;;;;4.85;1.90;;;;;;;;;;5078195;28;20033;-75
2022/07/06 05:43:23;;;;;;;6.97;2.10;;;;;;;;;;5076615;28;20047;-77
2022/07/06 05:45:49;;;;;;;5.28;1.90;;;;;;;;;;5077999;28;20033;-77
2022/07/06 05:51:00;;;;;;;4.88;1.80;;;;;;;;;;5057568;28;20037;-77
2022/07/06 05:53:26;;;;;;;4.20;1.55;;;;;;;;;;5080839;28;20033;-75
2022/07/06 05:55:52;;;;;;;5.00;1.88;;;;;;;;;;5063826;28;20032;-75
2022/07/06 05:58:18;;;;;;;6.07;2.15;;;;;;;;;;5075538;28;20436;-76
2022/07/06 06:00:44;;;;;;;6.72;2.03;;;;;;;;;;5058789;28;20089;-76
2022/07/06 06:03:10;;;;;;;4.97;2.00;;;;;;;;;;5081614;28;20032;-76
2022/07/06 06:05:36;;;;;;;8.07;1.90;;;;;;;;;;5081664;28;20033;-76
2022/07/06 06:08:03;;;;;;;7.70;1.85;;;;;;;;;;5062530;28;20053;-76
2022/07/06 06:10:29;;;;;;;4.88;1.50;;;;;;;;;;5080966;28;20052;-76
2022/07/06 06:12:55;;;;;;;5.80;1.77;;;;;;;;;;5081832;28;20055;-77
2022/07/06 06:15:21;;;;;;;4.60;1.63;;;;;;;;;;5058629;28;20021;-77
2022/07/06 06:17:47;;;;;;;4.78;2.05;;;;;;;;;;5054134;28;20049;-77
2022/07/06 06:20:14;;;;;;;5.72;1.83;;;;;;;;;;5080579;28;20025;-77
2022/07/06 06:22:48;;;;;;;4.07;1.48;;;;;;;;;;5079180;28;20064;-77
2022/07/06 06:25:14;;;;;;;7.05;1.80;;;;;;;;;;5081573;28;20036;-76
2022/07/06 06:27:40;;;;;;;4.82;1.70;;;;;;;;;;5064415;28;20104;-76
2022/07/06 06:30:07;;;;;;;4.20;1.65;;;;;;;;;;5063585;28;20041;-76
2022/07/06 06:32:33;;;;;;;6.53;1.60;;;;;;;;;;5063926;28;20033;-76
2022/07/06 06:34:59;;;;;;;4.25;1.48;;;;;;;;;;5081475;28;20040;-76
2022/07/06 06:37:25;;;;;;;5.50;1.45;;;;;;;;;;5062878;28;20029;-76
2022/07/06 06:39:51;;;;;;;2.53;1.27;;;;;;;;;;5077413;28;20021;-76
2022/07/06 06:42:17;;;;;;;6.47;1.80;;;;;;;;;;5063394;28;20087;-76
2022/07/06 06:44:43;;;;;;;1.98;1.20;;;;;;;;;;5062279;28;20097;-77
2022/07/06 06:47:09;;;;;;;2.45;1.60;;;;;;;;;;5060138;28;20072;-77
2022/07/06 06:49:35;;;;;;;4.00;1.40;;;;;;;;;;5061198;28;20041;-77
2022/07/06 06:52:01;;;;;;;6.22;1.40;;;;;;;;;;5060350;28;20113;-77
2022/07/06 06:54:27;;;;;;;4.45;1.42;;;;;;;;;;5060855;28;20033;-76
2022/07/06 06:56:53;;;;;;;2.38;1.42;;;;;;;;;;5059654;28;20037;-76
2022/07/06 06:59:19;;;;;;;3.33;1.40;;;;;;;;;;5059291;28;20056;-76
2022/07/06 07:01:45;;;;;;;5.07;1.50;;;;;;;;;;5058089;28;20061;-78
2022/07/06 07:04:11;;;;;;;2.65;1.50;;;;;;;;;;5058770;28;20061;-78
2022/07/06 07:06:37;;;;;;;4.03;1.50;;;;;;;;;;5060860;28;20101;-77
2022/07/06 07:09:04;;;;;;;3.25;1.52;;;;;;;;;;5058971;28;20026;-78
2022/07/06 07:11:31;;;;;;;3.35;1.30;;;;;;;;;;5055960;28;20036;-77
2022/07/06 07:13:57;;;;;;;3.22;1.58;;;;;;;;;;5060120;28;20029;-77
2022/07/06 07:16:24;;;;;;;1.70;1.23;;;;;;;;;;5051084;28;20046;-77
2022/07/06 07:18:50;;;;;;;2.90;1.42;;;;;;;;;;5056583;28;20025;-77
2022/07/06 07:21:16;;;;;;;5.07;1.70;;;;;;;;;;5056997;28;20025;-77
2022/07/06 07:23:42;;;;;;;3.65;1.70;;;;;;;;;;5059195;28;20057;-78
2022/07/06 07:26:09;;;;;;;4.97;1.65;;;;;;;;;;5059642;28;20022;-77
2022/07/06 07:28:35;;;;;;;4.15;1.35;;;;;;;;;;5059322;28;20036;-82
2022/07/06 07:31:01;;;;;;;5.50;1.50;;;;;;;;;;5060230;28;20025;-80
2022/07/06 07:33:27;;;;;;;3.47;1.70;;;;;;;;;;5058247;28;20043;-78
2022/07/06 07:35:53;;;;;;;3.72;1.63;;;;;;;;;;5059029;28;20042;-77
2022/07/06 07:38:19;;;;;;;4.20;1.90;;;;;;;;;;5054061;28;20045;-76
2022/07/06 07:40:45;;;;;;;4.47;1.70;;;;;;;;;;5055721;28;20060;-76
2022/07/06 07:43:11;;;;;;;4.53;1.67;;;;;;;;;;5058429;28;20079;-76
2022/07/06 07:45:37;;;;;;;8.07;1.70;;;;;;;;;;5055720;28;20077;-77
2022/07/06 07:48:03;;;;;;;3.67;1.50;;;;;;;;;;5059342;28;20089;-77
2022/07/06 07:50:29;;;;;;;2.35;1.40;;;;;;;;;;5059137;28;20037;-82
2022/07/06 07:52:55;;;;;;;4.15;1.70;;;;;;;;;;5048897;28;20025;-77
2022/07/06 07:55:21;;;;;;;3.83;1.50;;;;;;;;;;5039779;28;20022;-78
2022/07/06 07:57:48;;;;;;;4.18;1.60;;;;;;;;;;5039323;28;20038;-75
2022/07/06 08:00:14;;;;;;;4.78;1.63;;;;;;;;;;5044392;28;20045;-77
2022/07/06 08:02:40;;;;;;;5.35;1.38;;;;;;;;;;5037858;28;20026;-83
2022/07/06 08:05:06;;;;;;;4.60;1.60;;;;;;;;;;5039185;28;20029;-77
2022/07/06 08:07:33;;;;;;;3.03;1.50;;;;;;;;;;5057173;28;20029;-77
2022/07/06 08:09:59;;;;;;;2.60;1.45;;;;;;;;;;5056491;28;20018;-75
2022/07/06 08:12:26;;;;;;;2.50;1.50;;;;;;;;;;5059479;28;20321;-77
2022/07/06 08:14:52;;;;;;;4.35;1.55;;;;;;;;;;5052801;28;20037;-77
2022/07/06 08:17:18;;;;;;;2.13;1.15;;;;;;;;;;5045611;28;20315;-77
2022/07/06 08:19:44;;;;;;;3.28;1.65;;;;;;;;;;5056944;28;20034;-77
2022/07/06 08:22:10;;;;;;;3.95;1.50;;;;;;;;;;5057106;28;20024;-77
2022/07/06 08:24:36;;;;;;;2.72;1.50;;;;;;;;;;5058048;28;20037;-77
2022/07/06 08:27:03;;;;;;;3.33;1.48;;;;;;;;;;5042134;28;20045;-77
2022/07/06 08:29:29;;;;;;;3.67;1.63;;;;;;;;;;5053195;28;20042;-76
2022/07/06 08:31:56;;;;;;;3.28;1.52;;;;;;;;;;5057195;28;20048;-76
2022/07/06 08:34:22;;;;;;;4.18;1.40;;;;;;;;;;5056244;28;20033;-77
2022/07/06 08:36:48;;;;;;;5.85;1.90;;;;;;;;;;5058235;28;20045;-76
2022/07/06 08:39:14;;;;;;;4.60;1.77;;;;;;;;;;5058108;28;20096;-77
2022/07/06 08:41:42;;;;;;;3.03;1.60;;;;;;;;;;5056299;28;20022;-77
2022/07/06 08:44:08;;;;;;;2.65;1.55;;;;;;;;;;5052631;28;20087;-76
2022/07/06 08:46:35;;;;;;;4.55;1.55;;;;;;;;;;5054796;28;20540;-73
2022/07/06 08:49:01;;;;;;;4.22;1.73;;;;;;;;;;5074325;28;20052;-75
2022/07/06 08:51:28;;;;;;;2.70;1.40;;;;;;;;;;5077596;28;20037;-75
2022/07/06 08:53:54;;;;;;;4.55;1.60;;;;;;;;;;5078319;28;20029;-84
2022/07/06 08:56:20;;;;;;;3.95;1.52;;;;;;;;;;5078304;28;20024;-77
2022/07/06 08:58:46;;;;;;;3.05;1.63;;;;;;;;;;5077932;28;20025;-75
2022/07/06 09:01:12;;;;;;;5.60;1.63;;;;;;;;;;5075939;28;20108;-74
2022/07/06 09:03:42;;;;;;;3.55;1.65;;;;;;;;;;5077239;28;20039;-76
2022/07/06 09:06:08;;;;;;;2.05;1.55;;;;;;;;;;5077533;28;20047;-75
2022/07/06 09:08:37;;;;;;;3.38;1.45;;;;;;;;;;5077029;28;20056;-77
2022/07/06 09:11:04;;;;;;;4.57;1.83;;;;;;;;;;5061258;28;20033;-76
2022/07/06 09:13:30;;;;;;;4.10;1.65;;;;;;;;;;5060508;28;20037;-76
2022/07/06 09:15:56;;;;;;;3.65;1.70;;;;;;;;;;5061333;28;20052;-75
2022/07/06 09:18:22;;;;;;;3.70;1.88;;;;;;;;;;5060534;28;20063;-76
2022/07/06 09:20:48;;;;;;;6.28;1.83;;;;;;;;;;5078455;28;20025;-75
2022/07/06 09:23:17;;;;;;;5.07;1.75;;;;;;;;;;5078244;28;20036;-76
2022/07/06 09:25:48;;;;;;;5.32;1.73;;;;;;;;;;5078243;28;20033;-76
2022/07/06 09:28:14;;;;;;;3.83;1.50;;;;;;;;;;5060498;28;20108;-76
2022/07/06 09:30:41;;;;;;;5.25;2.00;;;;;;;;;;5078052;28;20021;-75
2022/07/06 09:33:08;;;;;;;4.22;1.60;;;;;;;;;;5077554;28;20053;-75
2022/07/06 09:35:38;;;;;;;3.72;1.60;;;;;;;;;;5077417;28;20021;-75
2022/07/06 09:38:08;;;;;;;3.20;1.65;;;;;;;;;;5078142;28;20029;-75
2022/07/06 09:40:38;;;;;;;2.95;1.35;;;;;;;;;;5078190;28;20025;-74
2022/07/06 09:43:11;;;;;;;3.67;1.50;;;;;;;;;;5060352;28;20084;-75
2022/07/06 09:45:38;;;;;;;4.25;1.40;;;;;;;;;;5078045;28;20051;-75
2022/07/06 09:48:08;;;;;;;3.97;1.55;;;;;;;;;;5077833;28;20104;-75
2022/07/06 09:50:41;;;;;;;1.98;1.27;;;;;;;;;;5076303;28;20088;-75
2022/07/06 09:53:08;;;;;;;3.13;1.30;;;;;;;;;;5058103;28;20056;-75
2022/07/06 09:55:34;;;;;;;3.05;1.48;;;;;;;;;;5058008;28;20064;-75
2022/07/06 09:58:00;;;;;;;3.70;1.48;;;;;;;;;;5062149;28;20021;-76
2022/07/06 10:00:26;;;;;;;2.75;1.40;;;;;;;;;;5078157;28;20080;-76
2022/07/06 10:02:52;;;;;;;3.08;1.60;;;;;;;;;;5077945;28;20060;-75
2022/07/06 10:05:18;;;;;;;3.30;1.40;;;;;;;;;;5076786;28;20039;-76
2022/07/06 10:07:49;;;;;;;3.65;1.60;;;;;;;;;;5076819;28;20040;-73
2022/07/06 10:10:15;;;;;;;1.88;1.23;;;;;;;;;;5057531;28;20044;-81
2022/07/06 10:12:43;;;;;;;2.70;1.10;;;;;;;;;;5057493;28;20047;-73
2022/07/06 10:15:09;;;;;;;3.17;1.30;;;;;;;;;;5071811;28;20411;-76
2022/07/06 10:17:35;;;;;;;4.53;1.38;;;;;;;;;;5057842;28;20055;-78
2022/07/06 10:20:02;;;;;;;2.30;1.42;;;;;;;;;;5076363;28;20021;-76
2022/07/06 10:22:28;;;;;;;4.43;1.60;;;;;;;;;;5077701;28;20063;-75
2022/07/06 10:24:57;;;;;;;4.13;1.48;;;;;;;;;;5077898;28;20036;-74
2022/07/06 10:27:25;;;;;;;2.33;1.10;;;;;;;;;;5059811;28;20033;-76
2022/07/06 10:29:51;;;;;;;1.40;1.25;;;;;;;;;;5077397;28;20029;-75
2022/07/06 10:32:19;;;;;;;1.98;1.15;;;;;;;;;;5077620;28;20025;-76
2022/07/06 10:34:46;;;;;;;4.47;1.52;;;;;;;;;;5076705;28;20033;-76
2022/07/06 10:37:23;;;;;;;5.47;1.55;;;;;;;;;;5060037;28;20056;-76
2022/07/06 10:42:41;;;;;;;2.58;1.42;;;;;;;;;;5068701;28;20041;-74
2022/07/06 10:45:08;;;;;;;2.95;1.40;;;;;;;;;;5080388;28;20073;-78
2022/07/06 10:47:35;;;;;;;2.30;1.30;;;;;;;;;;5075435;28;20106;-78
2022/07/06 10:50:01;;;;;;;4.90;1.70;;;;;;;;;;5043692;28;20040;-78
2022/07/06 10:52:46;;;;;;;2.10;1.23;;;;;;;;;;5053173;28;20048;-76
2022/07/06 10:55:30;;;;;;;3.08;1.40;;;;;;;;;;5080480;28;20029;-77
2022/07/06 10:57:56;;;;;;;2.63;1.65;;;;;;;;;;5078025;28;20035;-76
2022/07/06 11:00:22;;;;;;;2.55;1.58;;;;;;;;;;5062356;28;20063;-76
2022/07/06 11:02:48;;;;;;;1.70;1.60;;;;;;;;;;5080830;28;20036;-76
2022/07/06 11:05:33;;;;;;;3.65;1.50;;;;;;;;;;5079625;28;20060;-76
2022/07/06 11:08:02;;;;;;;3.03;1.55;;;;;;;;;;5061628;28;20036;-77
2022/07/06 11:10:46;;;;;;;5.47;1.70;;;;;;;;;;5076853;28;20025;-76
2022/07/06 11:13:25;;;;;;;2.45;1.40;;;;;;;;;;5060750;28;20089;-76
2022/07/06 11:15:51;;;;;;;3.60;1.55;;;;;;;;;;5047862;28;20056;-76
2022/07/06 11:18:20;;;;;;;2.22;1.50;;;;;;;;;;5062189;28;20033;-77
2022/07/06 11:21:06;;;;;;;3.35;1.35;;;;;;;;;;5080264;28;20025;-76
2022/07/06 11:23:32;;;;;;;2.83;1.42;;;;;;;;;;5062099;28;20101;-76
2022/07/06 11:25:59;;;;;;;2.42;1.42;;;;;;;;;;5079905;28;20044;-76
2022/07/06 11:28:26;;;;;;;2.67;1.33;;;;;;;;;;5080054;28;20052;-76
2022/07/06 11:30:52;;;;;;;4.18;1.65;;;;;;;;;;5080270;28;20057;-76
2022/07/06 11:33:28;;;;;;;3.55;1.55;;;;;;;;;;5078654;28;20029;-76
2022/07/06 11:36:11;;;;;;;2.45;1.40;;;;;;;;;;5054934;28;20189;-76
2022/07/06 11:38:37;;;;;;;2.03;1.50;;;;;;;;;;5077107;28;20036;-77
2022/07/06 11:41:03;;;;;;;1.77;1.30;;;;;;;;;;5078249;28;20097;-76
2022/07/06 11:43:29;;;;;;;9.23;1.60;;;;;;;;;;5079022;28;20025;-76
2022/07/06 11:45:55;;;;;;;3.25;1.50;;;;;;;;;;5080133;28;20028;-76
2022/07/06 11:48:21;;;;;;;3.45;1.45;;;;;;;;;;5079126;28;20033;-76
2022/07/06 11:51:01;;;;;;;2.30;1.55;;;;;;;;;;5079457;28;20040;-76
2022/07/06 11:53:27;;;;;;;1.85;1.40;;;;;;;;;;5062756;28;20025;-76
2022/07/06 11:55:53;;;;;;;3.35;1.50;;;;;;;;;;5079951;28;20029;-76
2022/07/06 11:58:24;;;;;;;3.38;1.40;;;;;;;;;;5061682;28;20056;-77
2022/07/06 12:01:06;;;;;;;1.88;1.45;;;;;;;;;;5079189;28;20028;-76
2022/07/06 12:03:32;;;;;;;2.63;1.60;;;;;;;;;;5079522;28;20032;-77
2022/07/06 12:05:59;;;;;;;1.83;1.30;;;;;;;;;;5077909;28;20029;-77
2022/07/06 12:08:25;;;;;;;3.03;1.50;;;;;;;;;;5079634;28;20054;-76
2022/07/06 12:10:52;;;;;;;2.05;1.60;;;;;;;;;;5062376;28;20036;-76
2022/07/06 12:13:18;;;;;;;2.05;1.58;;;;;;;;;;5078827;28;20037;-77
2022/07/06 12:15:44;;;;;;;2.72;1.63;;;;;;;;;;5079119;28;20021;-77
2022/07/06 12:18:11;;;;;;;3.67;1.60;;;;;;;;;;5067121;28;20055;-77
2022/07/06 12:20:37;;;;;;;3.53;1.60;;;;;;;;;;5078859;28;20055;-76
2022/07/06 12:23:03;;;;;;;2.55;1.67;;;;;;;;;;5079412;28;20084;-76
2022/07/06 12:25:30;;;;;;;3.70;1.63;;;;;;;;;;5077579;28;20059;-76
2022/07/06 12:27:56;;;;;;;3.45;1.83;;;;;;;;;;5078834;28;20021;-76
2022/07/06 12:30:22;;;;;;;2.83;1.67;;;;;;;;;;5079155;28;20052;-76
2022/07/06 12:33:08;;;;;;;3.13;1.73;;;;;;;;;;5079220;28;20069;-76
2022/07/06 12:35:34;;;;;;;2.10;1.60;;;;;;;;;;5079166;28;20021;-77
2022/07/06 12:38:00;;;;;;;3.15;1.80;;;;;;;;;;5078303;28;20047;-76
2022/07/06 12:40:27;;;;;;;3.38;1.52;;;;;;;;;;5061469;28;20033;-76
2022/07/06 12:42:53;;;;;;;1.95;1.40;;;;;;;;;;5076960;28;20025;-77
2022/07/06 12:45:20;;;;;;;4.35;1.60;;;;;;;;;;5074745;28;20036;-78
2022/07/06 12:47:59;;;;;;;3.55;1.65;;;;;;;;;;5072951;28;20060;-77
2022/07/06 12:50:32;;;;;;;3.42;1.60;;;;;;;;;;5058461;28;20038;-77
2022/07/06 12:52:58;;;;;;;2.42;1.55;;;;;;;;;;5058855;28;20064;-77
2022/07/06 12:55:28;;;;;;;5.32;2.47;;;;;;;;;;5078783;28;20033;-77
2022/07/06 12:57:54;;;;;;;4.25;2.15;;;;;;;;;;5068885;28;20045;-77
2022/07/06 13:00:21;;;;;;;3.40;1.90;;;;;;;;;;5058717;28;20085;-77
2022/07/06 13:02:55;;;;;;;4.90;1.88;;;;;;;;;;5076103;28;20025;-78
2022/07/06 13:05:29;;;;;;;5.07;1.80;;;;;;;;;;5081575;28;20195;-78
2022/07/06 13:07:56;;;;;;;6.60;1.92;;;;;;;;;;5088069;28;20021;-78
2022/07/06 13:10:23;;;;;;;5.53;2.15;;;;;;;;;;5076229;28;20032;-78
2022/07/06 13:12:49;;;;;;;5.05;2.00;;;;;;;;;;5054875;28;20039;-78
2022/07/06 13:15:15;;;;;;;5.63;2.03;;;;;;;;;;5070392;28;20029;-78
2022/07/06 13:17:42;;;;;;;6.22;1.95;;;;;;;;;;5067722;28;20033;-78
2022/07/06 13:20:09;;;;;;;5.32;2.30;;;;;;;;;;5067098;28;20039;-78
2022/07/06 13:22:35;;;;;;;6.25;2.20;;;;;;;;;;5051565;28;20052;-78
2022/07/06 13:25:01;;;;;;;4.28;1.80;;;;;;;;;;5069901;28;20024;-78
2022/07/06 13:27:27;;;;;;;4.38;1.88;;;;;;;;;;5072608;28;20041;-78
2022/07/06 13:29:54;;;;;;;5.30;1.95;;;;;;;;;;5072633;28;20049;-78
2022/07/06 13:32:21;;;;;;;3.42;1.83;;;;;;;;;;5074809;28;20079;-78
2022/07/06 13:34:47;;;;;;;3.40;1.92;;;;;;;;;;5070281;28;20024;-78
2022/07/06 13:37:13;;;;;;;3.33;1.85;;;;;;;;;;5074124;28;20102;-78
2022/07/06 13:39:39;;;;;;;3.17;1.70;;;;;;;;;;5065298;28;20047;-78
2022/07/06 13:42:07;;;;;;;5.28;1.83;;;;;;;;;;5072166;28;20029;-78
2022/07/06 13:44:33;;;;;;;4.10;1.92;;;;;;;;;;5073225;28;20055;-78
2022/07/06 13:47:00;;;;;;;3.50;1.80;;;;;;;;;;5077322;28;20048;-77
2022/07/06 13:49:26;;;;;;;5.20;2.15;;;;;;;;;;5060546;28;20060;-79
2022/07/06 13:51:54;;;;;;;4.30;1.88;;;;;;;;;;5059501;28;20033;-79
2022/07/06 13:54:20;;;;;;;6.50;2.08;;;;;;;;;;5077693;28;20033;-78
2022/07/06 13:56:46;;;;;;;6.47;2.70;;;;;;;;;;5059766;28;20022;-78
2022/07/06 13:59:12;;;;;;;4.32;2.15;;;;;;;;;;5074580;28;20091;-78
2022/07/06 14:01:38;;;;;;;8.43;2.88;;;;;;;;;;5072436;28;20021;-78
2022/07/06 14:04:04;;;;;;;8.73;3.10;;;;;;;;;;5077376;28;20033;-77
2022/07/06 14:06:30;;;;;;;8.65;3.55;;;;;;;;;;5062345;28;20030;-78
2022/07/06 14:08:56;;;;;;;4.72;2.20;;;;;;;;;;5066823;28;20085;-79
2022/07/06 14:11:22;;;;;;;14.88;5.38;;;;;;;;;;5076599;28;20045;-78
2022/07/06 14:13:48;;;;;;;7.60;2.75;;;;;;;;;;5078988;28;20033;-79
2022/07/06 14:16:14;;;;;;;9.18;3.40;;;;;;;;;;5079685;28;20025;-82
2022/07/06 14:18:40;;;;;;;6.28;2.80;;;;;;;;;;5058221;28;20029;-77
2022/07/06 14:21:06;;;;;;;8.00;3.05;;;;;;;;;;5071393;28;20029;-76
2022/07/06 14:23:32;;;;;;;9.38;3.20;;;;;;;;;;5056788;28;20041;-76
2022/07/06 14:25:58;;;;;;;4.50;2.38;;;;;;;;;;5080011;28;20055;-76
2022/07/06 14:28:24;;;;;;;7.55;2.65;;;;;;;;;;5079463;28;20048;-75
2022/07/06 14:30:50;;;;;;;6.25;3.10;;;;;;;;;;5077402;28;20029;-79
2022/07/06 14:33:17;;;;;;;9.23;4.03;;;;;;;;;;5078013;28;20024;-77
2022/07/06 14:35:47;;;;;;;8.02;3.92;;;;;;;;;;5070488;28;20063;-76
2022/07/06 14:38:13;;;;;;;7.57;3.85;;;;;;;;;;5052821;28;20059;-83
2022/07/06 14:40:39;;;;;;;7.45;3.10;;;;;;;;;;5075444;28;20101;-75
2022/07/06 14:43:05;;;;;;;6.25;3.28;;;;;;;;;;5075611;28;20025;-77
2022/07/06 14:45:31;;;;;;;4.43;2.67;;;;;;;;;;5052788;28;20040;-77
2022/07/06 14:47:58;;;;;;;3.60;2.67;;;;;;;;;;5080442;28;20044;-78
2022/07/06 14:50:24;;;;;;;7.15;2.97;;;;;;;;;;5080976;28;20047;-77